Salt Lake City, UT

11:27 AM MDT on July 22, 2017 (GMT -0600)
Downtown SLC | | Change Station

Elev 4344 ft 40.77 °N, 111.89 °W | Updated 27 minutes ago

Clear
Clear
87.4 °F
Feels Like 85 °F
N
1.0
Wind Variable Wind from ESE
Gusts 3.0 mph

Today
High -- | Low -- °F
--% Chance of Precip.
Yesterday
High -- | Low -- °F
Precip. -- in
Pressure 29.93 in
Visibility 10.0 miles
Clouds Few 15000 ft
Few 20000 ft
Heat Index 85 °F
Dew Point 54 °F
Humidity 32%
Rainfall 0.00 in
Snow Depth Not available.
6:15 AM 8:52 PM
Waning Crescent, 1% visible
METAR KSLC 221654Z 00000KT 10SM FEW150 FEW200 31/11 A3012 RMK AO2 SLP133 T03110106
Pressure 29.93 in
Visibility 10.0 miles
Clouds Few 15000 ft
Few 20000 ft
Heat Index 85 °F
Dew Point 54 °F
Humidity 32%
Rainfall 0.00 in
Snow Depth Not available.
6:15 AM 8:52 PM
Waning Crescent, 1% visible
METAR KSLC 221654Z 00000KT 10SM FEW150 FEW200 31/11 A3012 RMK AO2 SLP133 T03110106

Get Severe Weather Alerts

Thanks for signing up!

Be on the lookout for a verification email in your inbox.

You'll start receiving the daily forecast at 6 AM.

×

10-Day Weather Forecast

Almanac

Astronomy

Jul. 22, 2017 Rise Set
Actual Time
Civil Twilight
Nautical Twilight
Astronomical Twilight
Moon
Length of Visible Light
Length of Day
Tomorrow will be .
, % of the Moon is Illuminated

Today's Extremes

State Highs State Lows

Community

WunderPhotos

Category 6

Welcome to Category 6. This is the collective home for Weather Underground's featured writeups by Dr. Jeff Masters (right), Bob Henson (left), Chris Burt, and other regular contributors.

Nearby

Air Quality

  Air Quality AQ Index Pollutant
Not available.

Snow Depth

Station Depth Elevation

Earthquake Activity

City Distance Mag. Time & Date
Minimum magnitude displayed is 2.5.

Coastal Water Temperatures

Place Temperature

Stations

Nearby Weather Stations

Station Location Temp. Windchill Dew Point Humidity Wind Precip. Elev Updated Type
                   

Watches & Warnings

There are currently no watches in effect.